sensor_id;sensor_type;location;lat;lon;timestamp;pressure;altitude;pressure_sealevel;temperature;humidity
51468;BME280;37545;45.302;-122.946;2023-09-12T00:01:09;101018.78;;;26.27;46.92
51468;BME280;37545;45.302;-122.946;2023-09-12T00:03:49;101023.66;;;26.12;46.91
51468;BME280;37545;45.302;-122.946;2023-09-12T00:06:18;101021.31;;;26.03;47.24
51468;BME280;37545;45.302;-122.946;2023-09-12T00:08:47;101021.34;;;26.02;49.15
51468;BME280;37545;45.302;-122.946;2023-09-12T00:11:18;101019.75;;;25.96;48.70
51468;BME280;37545;45.302;-122.946;2023-09-12T00:13:46;101021.72;;;25.89;49.12
51468;BME280;37545;45.302;-122.946;2023-09-12T00:16:30;101023.75;;;25.80;47.76
51468;BME280;37545;45.302;-122.946;2023-09-12T00:19:00;101012.53;;;25.70;48.11
51468;BME280;37545;45.302;-122.946;2023-09-12T00:21:29;101018.88;;;25.64;48.17
51468;BME280;37545;45.302;-122.946;2023-09-12T00:23:58;101016.41;;;25.58;48.51
51468;BME280;37545;45.302;-122.946;2023-09-12T00:26:26;101013.84;;;25.55;49.08
51468;BME280;37545;45.302;-122.946;2023-09-12T00:28:57;101020.88;;;25.56;50.17
51468;BME280;37545;45.302;-122.946;2023-09-12T00:31:25;101016.66;;;25.49;49.14
51468;BME280;37545;45.302;-122.946;2023-09-12T00:33:54;101015.06;;;25.43;50.18
51468;BME280;37545;45.302;-122.946;2023-09-12T00:36:24;101008.97;;;25.40;50.78
51468;BME280;37545;45.302;-122.946;2023-09-12T00:38:52;101018.81;;;25.36;50.80
51468;BME280;37545;45.302;-122.946;2023-09-12T00:41:23;101017.19;;;25.31;50.75
51468;BME280;37545;45.302;-122.946;2023-09-12T00:43:52;101019.06;;;25.27;52.06
51468;BME280;37545;45.302;-122.946;2023-09-12T00:46:22;101016.59;;;25.19;52.46
51468;BME280;37545;45.302;-122.946;2023-09-12T00:48:52;101016.81;;;25.10;51.15
51468;BME280;37545;45.302;-122.946;2023-09-12T00:51:27;101010.81;;;25.03;51.44
51468;BME280;37545;45.302;-122.946;2023-09-12T00:53:56;101018.09;;;24.95;51.75
51468;BME280;37545;45.302;-122.946;2023-09-12T00:56:24;101016.66;;;24.83;52.27
51468;BME280;37545;45.302;-122.946;2023-09-12T00:58:54;101024.66;;;24.80;52.19
51468;BME280;37545;45.302;-122.946;2023-09-12T01:01:26;101017.72;;;24.76;51.80
51468;BME280;37545;45.302;-122.946;2023-09-12T01:04:04;101018.69;;;24.72;51.70
51468;BME280;37545;45.302;-122.946;2023-09-12T01:06:34;101012.66;;;24.67;51.37
51468;BME280;37545;45.302;-122.946;2023-09-12T01:09:06;101011.97;;;24.59;51.59
51468;BME280;37545;45.302;-122.946;2023-09-12T01:11:37;101010.41;;;24.50;52.06
51468;BME280;37545;45.302;-122.946;2023-09-12T01:14:08;101007.00;;;24.43;52.24
51468;BME280;37545;45.302;-122.946;2023-09-12T01:16:38;101007.97;;;24.39;52.85
51468;BME280;37545;45.302;-122.946;2023-09-12T01:19:16;101006.34;;;24.35;53.32
51468;BME280;37545;45.302;-122.946;2023-09-12T01:22:13;101007.28;;;24.33;53.63
51468;BME280;37545;45.302;-122.946;2023-09-12T01:25:08;101011.66;;;24.34;54.25
51468;BME280;37545;45.302;-122.946;2023-09-12T01:27:45;101006.34;;;24.35;53.90
51468;BME280;37545;45.302;-122.946;2023-09-12T01:30:17;101010.72;;;24.35;53.72
51468;BME280;37545;45.302;-122.946;2023-09-12T01:32:49;101011.66;;;24.32;53.86
51468;BME280;37545;45.302;-122.946;2023-09-12T01:35:19;101012.63;;;24.30;53.69
51468;BME280;37545;45.302;-122.946;2023-09-12T01:37:47;101013.66;;;24.24;54.21
51468;BME280;37545;45.302;-122.946;2023-09-12T01:40:16;101004.16;;;24.15;54.73
51468;BME280;37545;45.302;-122.946;2023-09-12T01:42:47;101008.78;;;24.06;54.18
51468;BME280;37545;45.302;-122.946;2023-09-12T01:45:17;101015.09;;;23.98;54.54
51468;BME280;37545;45.302;-122.946;2023-09-12T01:47:48;101009.97;;;23.91;54.68
51468;BME280;37545;45.302;-122.946;2023-09-12T01:50:19;101018.00;;;23.86;54.94
51468;BME280;37545;45.302;-122.946;2023-09-12T01:52:51;101013.72;;;23.80;55.36
51468;BME280;37545;45.302;-122.946;2023-09-12T01:55:22;101016.50;;;23.74;55.59
51468;BME280;37545;45.302;-122.946;2023-09-12T01:57:52;101013.00;;;23.71;55.52
51468;BME280;37545;45.302;-122.946;2023-09-12T02:00:21;101014.88;;;23.66;55.37
51468;BME280;37545;45.302;-122.946;2023-09-12T02:02:53;101013.25;;;23.58;55.45
51468;BME280;37545;45.302;-122.946;2023-09-12T02:05:22;101019.50;;;23.54;55.60
51468;BME280;37545;45.302;-122.946;2023-09-12T02:07:51;101014.34;;;23.48;55.94
51468;BME280;37545;45.302;-122.946;2023-09-12T02:10:19;101023.16;;;23.47;55.69
51468;BME280;37545;45.302;-122.946;2023-09-12T02:12:48;101022.38;;;23.42;55.69
51468;BME280;37545;45.302;-122.946;2023-09-12T02:15:18;101026.91;;;23.37;56.03
51468;BME280;37545;45.302;-122.946;2023-09-12T02:17:47;101026.06;;;23.33;56.32
51468;BME280;37545;45.302;-122.946;2023-09-12T02:20:17;101021.72;;;23.32;56.20
51468;BME280;37545;45.302;-122.946;2023-09-12T02:22:45;101019.94;;;23.31;56.36
51468;BME280;37545;45.302;-122.946;2023-09-12T02:25:14;101025.28;;;23.28;56.49
51468;BME280;37545;45.302;-122.946;2023-09-12T02:27:50;101023.59;;;23.26;56.64
51468;BME280;37545;45.302;-122.946;2023-09-12T02:30:20;101026.25;;;23.23;56.76
51468;BME280;37545;45.302;-122.946;2023-09-12T02:32:48;101021.06;;;23.18;56.28
51468;BME280;37545;45.302;-122.946;2023-09-12T02:35:17;101019.38;;;23.15;56.44
51468;BME280;37545;45.302;-122.946;2023-09-12T02:37:45;101020.44;;;23.07;56.48
51468;BME280;37545;45.302;-122.946;2023-09-12T02:40:14;101016.94;;;23.05;56.58
51468;BME280;37545;45.302;-122.946;2023-09-12T02:42:44;101025.72;;;23.05;56.15
51468;BME280;37545;45.302;-122.946;2023-09-12T02:45:13;101035.50;;;23.00;56.27
51468;BME280;37545;45.302;-122.946;2023-09-12T02:47:50;101035.50;;;22.97;56.76
51468;BME280;37545;45.302;-122.946;2023-09-12T02:50:19;101033.78;;;22.93;56.92
51468;BME280;37545;45.302;-122.946;2023-09-12T02:52:48;101036.50;;;22.91;57.01
51468;BME280;37545;45.302;-122.946;2023-09-12T02:55:16;101035.63;;;22.89;56.90
51468;BME280;37545;45.302;-122.946;2023-09-12T02:57:47;101037.50;;;22.84;57.00
51468;BME280;37545;45.302;-122.946;2023-09-12T03:00:16;101049.91;;;22.77;55.93
51468;BME280;37545;45.302;-122.946;2023-09-12T03:02:48;101043.84;;;22.72;55.52
51468;BME280;37545;45.302;-122.946;2023-09-12T03:05:16;101050.91;;;22.70;54.72
51468;BME280;37545;45.302;-122.946;2023-09-12T03:07:45;101041.44;;;22.57;54.81
51468;BME280;37545;45.302;-122.946;2023-09-12T03:10:14;101062.44;;;22.63;53.91
51468;BME280;37545;45.302;-122.946;2023-09-12T03:12:42;101067.75;;;22.62;54.02
51468;BME280;37545;45.302;-122.946;2023-09-12T03:15:11;101072.16;;;22.59;53.86
51468;BME280;37545;45.302;-122.946;2023-09-12T03:17:40;101074.94;;;22.52;52.99
51468;BME280;37545;45.302;-122.946;2023-09-12T03:20:13;101076.75;;;22.47;52.67
51468;BME280;37545;45.302;-122.946;2023-09-12T03:22:42;101084.75;;;22.41;52.84
51468;BME280;37545;45.302;-122.946;2023-09-12T03:25:11;101078.69;;;22.34;52.46
51468;BME280;37545;45.302;-122.946;2023-09-12T03:27:40;101078.72;;;22.32;52.75
51468;BME280;37545;45.302;-122.946;2023-09-12T03:30:09;101086.63;;;22.31;53.37
51468;BME280;37545;45.302;-122.946;2023-09-12T03:32:38;101084.03;;;22.29;53.55
51468;BME280;37545;45.302;-122.946;2023-09-12T03:35:09;101079.75;;;22.22;53.39
51468;BME280;37545;45.302;-122.946;2023-09-12T03:37:38;101079.78;;;22.17;53.19
51468;BME280;37545;45.302;-122.946;2023-09-12T03:40:10;101077.19;;;22.13;54.03
51468;BME280;37545;45.302;-122.946;2023-09-12T03:42:42;101086.03;;;22.09;53.91
51468;BME280;37545;45.302;-122.946;2023-09-12T03:45:11;101086.03;;;22.06;54.95
51468;BME280;37545;45.302;-122.946;2023-09-12T03:47:41;101082.59;;;22.02;55.29
51468;BME280;37545;45.302;-122.946;2023-09-12T03:50:14;101087.84;;;22.04;56.88
51468;BME280;37545;45.302;-122.946;2023-09-12T03:52:49;101092.22;;;22.05;56.33
51468;BME280;37545;45.302;-122.946;2023-09-12T03:55:17;101095.75;;;22.04;55.52
51468;BME280;37545;45.302;-122.946;2023-09-12T03:57:46;101100.19;;;22.02;55.82
51468;BME280;37545;45.302;-122.946;2023-09-12T04:00:16;101107.16;;;22.04;56.52
51468;BME280;37545;45.302;-122.946;2023-09-12T04:02:50;101101.03;;;22.04;56.36
51468;BME280;37545;45.302;-122.946;2023-09-12T04:05:20;101109.81;;;22.03;56.28
51468;BME280;37545;45.302;-122.946;2023-09-12T04:07:49;101109.00;;;21.99;55.53
51468;BME280;37545;45.302;-122.946;2023-09-12T04:10:19;101110.72;;;21.99;55.40
51468;BME280;37545;45.302;-122.946;2023-09-12T04:12:53;101122.13;;;22.01;54.92
51468;BME280;37545;45.302;-122.946;2023-09-12T04:15:22;101123.03;;;21.96;55.52
51468;BME280;37545;45.302;-122.946;2023-09-12T04:17:51;101119.66;;;21.88;55.19
51468;BME280;37545;45.302;-122.946;2023-09-12T04:20:30;101121.47;;;21.83;55.06
51468;BME280;37545;45.302;-122.946;2023-09-12T04:23:01;101117.97;;;21.81;55.28
51468;BME280;37545;45.302;-122.946;2023-09-12T04:25:30;101116.25;;;21.77;55.50
51468;BME280;37545;45.302;-122.946;2023-09-12T04:28:00;101120.66;;;21.73;55.81
51468;BME280;37545;45.302;-122.946;2023-09-12T04:30:31;101120.75;;;21.67;55.69
51468;BME280;37545;45.302;-122.946;2023-09-12T04:33:00;101126.94;;;21.62;56.46
51468;BME280;37545;45.302;-122.946;2023-09-12T04:35:33;101125.28;;;21.54;56.38
51468;BME280;37545;45.302;-122.946;2023-09-12T04:38:04;101124.44;;;21.48;57.76
51468;BME280;37545;45.302;-122.946;2023-09-12T04:40:35;101128.03;;;21.41;56.98
51468;BME280;37545;45.302;-122.946;2023-09-12T04:43:05;101121.06;;;21.32;57.54
51468;BME280;37545;45.302;-122.946;2023-09-12T04:45:34;101119.38;;;21.26;57.01
51468;BME280;37545;45.302;-122.946;2023-09-12T04:48:04;101129.97;;;21.14;57.15
51468;BME280;37545;45.302;-122.946;2023-09-12T04:50:40;101132.66;;;21.09;57.05
51468;BME280;37545;45.302;-122.946;2023-09-12T04:53:12;101130.09;;;21.00;56.94
51468;BME280;37545;45.302;-122.946;2023-09-12T04:55:41;101134.56;;;20.92;57.30
51468;BME280;37545;45.302;-122.946;2023-09-12T04:58:09;101132.81;;;20.88;57.50
51468;BME280;37545;45.302;-122.946;2023-09-12T05:00:39;101133.75;;;20.81;57.15
51468;BME280;37545;45.302;-122.946;2023-09-12T05:03:08;101137.28;;;20.75;57.67
51468;BME280;37545;45.302;-122.946;2023-09-12T05:05:38;101131.19;;;20.70;58.62
51468;BME280;37545;45.302;-122.946;2023-09-12T05:08:07;101135.63;;;20.62;58.78
51468;BME280;37545;45.302;-122.946;2023-09-12T05:10:38;101139.16;;;20.58;58.71
51468;BME280;37545;45.302;-122.946;2023-09-12T05:13:07;101144.41;;;20.53;58.55
51468;BME280;37545;45.302;-122.946;2023-09-12T05:15:35;101150.56;;;20.49;59.67
51468;BME280;37545;45.302;-122.946;2023-09-12T05:18:06;101154.94;;;20.45;59.98
51468;BME280;37545;45.302;-122.946;2023-09-12T05:20:34;101143.59;;;20.42;60.94
51468;BME280;37545;45.302;-122.946;2023-09-12T05:23:06;101143.59;;;20.37;61.83
51468;BME280;37545;45.302;-122.946;2023-09-12T05:25:35;101139.22;;;20.32;61.22
51468;BME280;37545;45.302;-122.946;2023-09-12T05:28:04;101148.03;;;20.26;61.75
51468;BME280;37545;45.302;-122.946;2023-09-12T05:30:33;101150.69;;;20.18;61.81
51468;BME280;37545;45.302;-122.946;2023-09-12T05:33:02;101134.97;;;20.09;62.05
51468;BME280;37545;45.302;-122.946;2023-09-12T05:35:32;101140.22;;;20.07;62.23
51468;BME280;37545;45.302;-122.946;2023-09-12T05:38:01;101146.34;;;20.09;64.92
51468;BME280;37545;45.302;-122.946;2023-09-12T05:40:31;101147.22;;;20.10;63.45
51468;BME280;37545;45.302;-122.946;2023-09-12T05:43:00;101155.09;;;20.10;63.48
51468;BME280;37545;45.302;-122.946;2023-09-12T05:45:31;101159.47;;;20.11;64.12
51468;BME280;37545;45.302;-122.946;2023-09-12T05:48:00;101162.97;;;20.10;65.56
51468;BME280;37545;45.302;-122.946;2023-09-12T05:50:29;101152.47;;;20.04;64.05
51468;BME280;37545;45.302;-122.946;2023-09-12T05:52:58;101163.00;;;20.07;63.18
51468;BME280;37545;45.302;-122.946;2023-09-12T05:55:29;101160.38;;;20.05;63.93
51468;BME280;37545;45.302;-122.946;2023-09-12T05:58:03;101159.50;;;20.02;64.19
51468;BME280;37545;45.302;-122.946;2023-09-12T06:00:32;101159.50;;;20.02;64.48
51468;BME280;37545;45.302;-122.946;2023-09-12T06:03:01;101164.75;;;19.93;65.19
51468;BME280;37545;45.302;-122.946;2023-09-12T06:05:34;101162.19;;;19.79;66.03
51468;BME280;37545;45.302;-122.946;2023-09-12T06:08:03;101166.56;;;19.66;66.47
51468;BME280;37545;45.302;-122.946;2023-09-12T06:10:34;101174.41;;;19.58;66.52
51468;BME280;37545;45.302;-122.946;2023-09-12T06:13:05;101174.44;;;19.51;66.79
51468;BME280;37545;45.302;-122.946;2023-09-12T06:15:33;101171.84;;;19.38;66.55
51468;BME280;37545;45.302;-122.946;2023-09-12T06:18:05;101177.06;;;19.26;66.77
51468;BME280;37545;45.302;-122.946;2023-09-12T06:20:34;101176.19;;;19.21;67.02
51468;BME280;37545;45.302;-122.946;2023-09-12T06:23:02;101181.44;;;19.16;68.19
51468;BME280;37545;45.302;-122.946;2023-09-12T06:25:34;101177.94;;;19.08;67.76
51468;BME280;37545;45.302;-122.946;2023-09-12T06:28:09;101181.41;;;19.02;67.83
51468;BME280;37545;45.302;-122.946;2023-09-12T06:30:38;101188.41;;;19.00;68.39
51468;BME280;37545;45.302;-122.946;2023-09-12T06:33:06;101180.53;;;19.00;68.50
51468;BME280;37545;45.302;-122.946;2023-09-12T06:35:35;101184.91;;;18.97;68.06
51468;BME280;37545;45.302;-122.946;2023-09-12T06:38:03;101175.28;;;18.88;68.07
51468;BME280;37545;45.302;-122.946;2023-09-12T06:40:32;101174.41;;;18.83;67.90
51468;BME280;37545;45.302;-122.946;2023-09-12T06:43:01;101176.16;;;18.86;68.22
51468;BME280;37545;45.302;-122.946;2023-09-12T06:45:31;101172.63;;;18.79;68.93
51468;BME280;37545;45.302;-122.946;2023-09-12T06:48:05;101172.59;;;18.74;69.12
51468;BME280;37545;45.302;-122.946;2023-09-12T06:50:34;101172.59;;;18.70;69.42
51468;BME280;37545;45.302;-122.946;2023-09-12T06:53:04;101179.56;;;18.65;69.73
51468;BME280;37545;45.302;-122.946;2023-09-12T06:55:34;101170.81;;;18.58;70.18
51468;BME280;37545;45.302;-122.946;2023-09-12T06:58:05;101166.41;;;18.55;69.93
51468;BME280;37545;45.302;-122.946;2023-09-12T07:00:36;101176.88;;;18.51;70.63
51468;BME280;37545;45.302;-122.946;2023-09-12T07:03:04;101179.50;;;18.45;70.71
51468;BME280;37545;45.302;-122.946;2023-09-12T07:05:36;101182.06;;;18.38;70.47
51468;BME280;37545;45.302;-122.946;2023-09-12T07:08:09;101180.31;;;18.36;71.12
51468;BME280;37545;45.302;-122.946;2023-09-12T07:10:38;101187.28;;;18.31;70.83
51468;BME280;37545;45.302;-122.946;2023-09-12T07:13:11;101175.91;;;18.21;70.42
51468;BME280;37545;45.302;-122.946;2023-09-12T07:15:47;101191.63;;;18.27;70.29
51468;BME280;37545;45.302;-122.946;2023-09-12T07:18:15;101197.72;;;18.28;69.82
51468;BME280;37545;45.302;-122.946;2023-09-12T07:20:44;101192.50;;;18.29;69.73
51468;BME280;37545;45.302;-122.946;2023-09-12T07:23:13;101191.66;;;18.32;69.09
51468;BME280;37545;45.302;-122.946;2023-09-12T07:25:42;101199.50;;;18.32;68.94
51468;BME280;37545;45.302;-122.946;2023-09-12T07:28:10;101190.75;;;18.30;68.62
51468;BME280;37545;45.302;-122.946;2023-09-12T07:30:42;101204.75;;;18.32;69.18
51468;BME280;37545;45.302;-122.946;2023-09-12T07:33:13;101196.88;;;18.29;69.98
51468;BME280;37545;45.302;-122.946;2023-09-12T07:35:42;101202.13;;;18.30;69.32
51468;BME280;37545;45.302;-122.946;2023-09-12T07:38:14;101201.25;;;18.30;69.52
51468;BME280;37545;45.302;-122.946;2023-09-12T07:40:42;101202.13;;;18.30;70.25
51468;BME280;37545;45.302;-122.946;2023-09-12T07:43:12;101212.59;;;18.26;69.77
51468;BME280;37545;45.302;-122.946;2023-09-12T07:45:42;101204.69;;;18.23;69.88
51468;BME280;37545;45.302;-122.946;2023-09-12T07:48:15;101195.91;;;18.11;69.18
51468;BME280;37545;45.302;-122.946;2023-09-12T07:50:44;101215.16;;;18.16;69.19
51468;BME280;37545;45.302;-122.946;2023-09-12T07:53:12;101206.38;;;18.11;69.42
51468;BME280;37545;45.302;-122.946;2023-09-12T07:55:41;101209.84;;;18.04;69.62
51468;BME280;37545;45.302;-122.946;2023-09-12T07:58:16;101215.91;;;18.00;70.03
51468;BME280;37545;45.302;-122.946;2023-09-12T08:00:49;101211.56;;;17.99;70.02
51468;BME280;37545;45.302;-122.946;2023-09-12T08:03:18;101202.81;;;17.94;70.56
51468;BME280;37545;45.302;-122.946;2023-09-12T08:05:59;101207.13;;;17.89;71.07
51468;BME280;37545;45.302;-122.946;2023-09-12T08:08:28;101215.75;;;17.78;71.81
51468;BME280;37545;45.302;-122.946;2023-09-12T08:10:57;101204.34;;;17.69;71.40
51468;BME280;37545;45.302;-122.946;2023-09-12T08:13:27;101213.91;;;17.65;72.33
51468;BME280;37545;45.302;-122.946;2023-09-12T08:16:00;101215.63;;;17.63;72.08
51468;BME280;37545;45.302;-122.946;2023-09-12T08:18:31;101216.47;;;17.61;72.61
51468;BME280;37545;45.302;-122.946;2023-09-12T08:21:00;101224.31;;;17.59;72.97
51468;BME280;37545;45.302;-122.946;2023-09-12T08:23:28;101221.69;;;17.56;73.17
51468;BME280;37545;45.302;-122.946;2023-09-12T08:25:57;101216.44;;;17.53;73.21
51468;BME280;37545;45.302;-122.946;2023-09-12T08:28:28;101214.63;;;17.47;73.11
51468;BME280;37545;45.302;-122.946;2023-09-12T08:30:58;101211.13;;;17.47;73.86
51468;BME280;37545;45.302;-122.946;2023-09-12T08:33:27;101216.34;;;17.44;74.08
51468;BME280;37545;45.302;-122.946;2023-09-12T08:35:55;101209.34;;;17.40;73.93
51468;BME280;37545;45.302;-122.946;2023-09-12T08:38:26;101204.91;;;17.34;73.85
51468;BME280;37545;45.302;-122.946;2023-09-12T08:40:55;101207.53;;;17.32;73.87
51468;BME280;37545;45.302;-122.946;2023-09-12T08:43:24;101209.22;;;17.29;74.31
51468;BME280;37545;45.302;-122.946;2023-09-12T08:45:54;101200.50;;;17.25;75.58
51468;BME280;37545;45.302;-122.946;2023-09-12T08:48:28;101204.84;;;17.23;75.95
51468;BME280;37545;45.302;-122.946;2023-09-12T08:50:58;101202.16;;;17.20;76.42
51468;BME280;37545;45.302;-122.946;2023-09-12T08:53:27;101196.06;;;17.20;76.82
51468;BME280;37545;45.302;-122.946;2023-09-12T08:55:55;101201.31;;;17.18;76.71
51468;BME280;37545;45.302;-122.946;2023-09-12T08:58:24;101208.25;;;17.16;76.62
51468;BME280;37545;45.302;-122.946;2023-09-12T09:00:54;101203.84;;;17.12;76.93
51468;BME280;37545;45.302;-122.946;2023-09-12T09:03:25;101209.06;;;17.09;76.99
51468;BME280;37545;45.302;-122.946;2023-09-12T09:05:54;101209.88;;;17.05;77.81
51468;BME280;37545;45.302;-122.946;2023-09-12T09:08:24;101192.34;;;16.93;77.96
51468;BME280;37545;45.302;-122.946;2023-09-12T09:10:59;101207.19;;;16.99;77.83
51468;BME280;37545;45.302;-122.946;2023-09-12T09:13:29;101200.19;;;16.94;78.55
51468;BME280;37545;45.302;-122.946;2023-09-12T09:16:16;101194.06;;;16.91;78.59
51468;BME280;37545;45.302;-122.946;2023-09-12T09:18:54;101191.41;;;16.89;78.99
51468;BME280;37545;45.302;-122.946;2023-09-12T09:21:25;101183.56;;;16.86;79.64
51468;BME280;37545;45.302;-122.946;2023-09-12T09:23:57;101191.38;;;16.85;79.44
51468;BME280;37545;45.302;-122.946;2023-09-12T09:26:27;101179.06;;;16.74;79.80
51468;BME280;37545;45.302;-122.946;2023-09-12T09:29:09;101193.88;;;16.79;79.67
51468;BME280;37545;45.302;-122.946;2023-09-12T09:31:41;101198.19;;;16.76;80.47
51468;BME280;37545;45.302;-122.946;2023-09-12T09:34:15;101196.47;;;16.75;80.65
51468;BME280;37545;45.302;-122.946;2023-09-12T09:36:46;101196.47;;;16.75;81.15
51468;BME280;37545;45.302;-122.946;2023-09-12T09:39:19;101192.94;;;16.72;81.92
51468;BME280;37545;45.302;-122.946;2023-09-12T09:41:47;101198.13;;;16.69;82.25
51468;BME280;37545;45.302;-122.946;2023-09-12T09:44:17;101194.63;;;16.67;82.16
51468;BME280;37545;45.302;-122.946;2023-09-12T09:46:46;101198.13;;;16.69;82.86
51468;BME280;37545;45.302;-122.946;2023-09-12T09:49:23;101199.00;;;16.69;82.45
51468;BME280;37545;45.302;-122.946;2023-09-12T09:51:51;101189.44;;;16.70;82.03
51468;BME280;37545;45.302;-122.946;2023-09-12T09:54:24;101196.38;;;16.68;82.17
51468;BME280;37545;45.302;-122.946;2023-09-12T09:56:54;101192.88;;;16.66;81.38
51468;BME280;37545;45.302;-122.946;2023-09-12T09:59:25;101200.66;;;16.63;82.43
51468;BME280;37545;45.302;-122.946;2023-09-12T10:01:56;101201.44;;;16.52;83.07
51468;BME280;37545;45.302;-122.946;2023-09-12T10:04:27;101200.44;;;16.44;84.14
51468;BME280;37545;45.302;-122.946;2023-09-12T10:07:06;101198.66;;;16.39;84.04
51468;BME280;37545;45.302;-122.946;2023-09-12T10:09:36;101194.16;;;16.30;83.54
51468;BME280;37545;45.302;-122.946;2023-09-12T10:12:05;101209.06;;;16.37;84.14
51468;BME280;37545;45.302;-122.946;2023-09-12T10:14:36;101208.19;;;16.37;83.87
51468;BME280;37545;45.302;-122.946;2023-09-12T10:17:07;101212.53;;;16.38;84.30
51468;BME280;37545;45.302;-122.946;2023-09-12T10:19:51;101211.66;;;16.37;84.35
51468;BME280;37545;45.302;-122.946;2023-09-12T10:22:28;101210.84;;;16.40;84.65
51468;BME280;37545;45.302;-122.946;2023-09-12T10:25:00;101206.50;;;16.40;85.34
51468;BME280;37545;45.302;-122.946;2023-09-12T10:27:29;101210.88;;;16.43;84.76
51468;BME280;37545;45.302;-122.946;2023-09-12T10:30:13;101206.53;;;16.43;84.88
51468;BME280;37545;45.302;-122.946;2023-09-12T10:32:42;101215.28;;;16.45;85.11
51468;BME280;37545;45.302;-122.946;2023-09-12T10:35:16;101206.53;;;16.43;84.93
51468;BME280;37545;45.302;-122.946;2023-09-12T10:37:46;101206.56;;;16.45;86.03
51468;BME280;37545;45.302;-122.946;2023-09-12T10:40:17;101208.28;;;16.44;86.31
51468;BME280;37545;45.302;-122.946;2023-09-12T10:42:48;101207.44;;;16.45;85.97
51468;BME280;37545;45.302;-122.946;2023-09-12T10:45:18;101204.81;;;16.45;84.72
51468;BME280;37545;45.302;-122.946;2023-09-12T10:47:49;101202.22;;;16.47;84.81
51468;BME280;37545;45.302;-122.946;2023-09-12T10:50:20;101204.81;;;16.47;85.18
51468;BME280;37545;45.302;-122.946;2023-09-12T10:52:48;101210.94;;;16.47;85.42
51468;BME280;37545;45.302;-122.946;2023-09-12T10:55:17;101200.50;;;16.47;85.18
51468;BME280;37545;45.302;-122.946;2023-09-12T10:58:04;101199.63;;;16.48;84.32
51468;BME280;37545;45.302;-122.946;2023-09-12T11:00:33;101192.56;;;16.41;85.08
51468;BME280;37545;45.302;-122.946;2023-09-12T11:03:36;101204.84;;;16.48;84.74
51468;BME280;37545;45.302;-122.946;2023-09-12T11:06:20;101199.59;;;16.45;84.28
51468;BME280;37545;45.302;-122.946;2023-09-12T11:09:16;101199.53;;;16.42;83.97
51468;BME280;37545;45.302;-122.946;2023-09-12T11:11:46;101196.94;;;16.41;84.04
51468;BME280;37545;45.302;-122.946;2023-09-12T11:14:17;101197.78;;;16.38;84.96
51468;BME280;37545;45.302;-122.946;2023-09-12T11:19:47;101195.03;;;16.30;83.55
51468;BME280;37545;45.302;-122.946;2023-09-12T11:22:25;101200.19;;;16.26;83.65
51468;BME280;37545;45.302;-122.946;2023-09-12T11:24:54;101201.91;;;16.22;83.80
51468;BME280;37545;45.302;-122.946;2023-09-12T11:27:31;101204.44;;;16.16;84.07
51468;BME280;37545;45.302;-122.946;2023-09-12T11:30:05;101206.09;;;16.12;83.90
51468;BME280;37545;45.302;-122.946;2023-09-12T11:32:38;101195.50;;;16.00;83.80
51468;BME280;37545;45.302;-122.946;2023-09-12T11:35:08;101207.75;;;16.04;84.00
51468;BME280;37545;45.302;-122.946;2023-09-12T11:37:38;101209.44;;;15.99;83.60
51468;BME280;37545;45.302;-122.946;2023-09-12T11:40:23;101210.22;;;15.95;84.76
51468;BME280;37545;45.302;-122.946;2023-09-12T11:42:52;101205.81;;;15.91;84.95
51468;BME280;37545;45.302;-122.946;2023-09-12T11:45:21;101204.91;;;15.87;85.55
51468;BME280;37545;45.302;-122.946;2023-09-12T11:47:50;101200.50;;;15.85;85.38
51468;BME280;37545;45.302;-122.946;2023-09-12T11:50:29;101194.38;;;15.81;86.05
51468;BME280;37545;45.302;-122.946;2023-09-12T11:53:04;101199.53;;;15.77;86.45
51468;BME280;37545;45.302;-122.946;2023-09-12T11:55:34;101199.44;;;15.72;86.03
51468;BME280;37545;45.302;-122.946;2023-09-12T11:58:04;101201.94;;;15.67;85.71
51468;BME280;37545;45.302;-122.946;2023-09-12T12:00:44;101196.63;;;15.61;86.42
51468;BME280;37545;45.302;-122.946;2023-09-12T12:03:16;101197.34;;;15.53;87.72
51468;BME280;37545;45.302;-122.946;2023-09-12T12:05:45;101192.88;;;15.44;87.99
51468;BME280;37545;45.302;-122.946;2023-09-12T12:08:17;101186.72;;;15.40;87.44
51468;BME280;37545;45.302;-122.946;2023-09-12T12:10:50;101186.69;;;15.39;88.17
51468;BME280;37545;45.302;-122.946;2023-09-12T12:13:22;101195.38;;;15.38;87.61
51468;BME280;37545;45.302;-122.946;2023-09-12T12:15:51;101198.00;;;15.38;87.67
51468;BME280;37545;45.302;-122.946;2023-09-12T12:18:19;101193.59;;;15.35;87.44
51468;BME280;37545;45.302;-122.946;2023-09-12T12:20:48;101193.53;;;15.32;87.30
51468;BME280;37545;45.302;-122.946;2023-09-12T12:23:18;101190.88;;;15.29;87.04
51468;BME280;37545;45.302;-122.946;2023-09-12T12:25:47;101185.59;;;15.24;86.57
51468;BME280;37545;45.302;-122.946;2023-09-12T12:28:16;101188.94;;;15.17;86.41
51468;BME280;37545;45.302;-122.946;2023-09-12T12:30:45;101190.66;;;15.15;87.87
51468;BME280;37545;45.302;-122.946;2023-09-12T12:33:14;101193.22;;;15.12;88.02
51468;BME280;37545;45.302;-122.946;2023-09-12T12:35:43;101195.75;;;15.09;87.51
51468;BME280;37545;45.302;-122.946;2023-09-12T12:38:12;101193.94;;;15.05;87.86
51468;BME280;37545;45.302;-122.946;2023-09-12T12:40:43;101197.34;;;15.01;88.19
51468;BME280;37545;45.302;-122.946;2023-09-12T12:43:17;101192.88;;;14.95;88.43